sensor_id;sensor_type;location;lat;lon;timestamp;noise_LAeq;noise_LA_min;noise_LA_max;noise_LA01;noise_LA95
37223;Laerm;28026;48.562;14.440;2022-12-01T00:01:09;39.50;34.31;42.65;;
37223;Laerm;28026;48.562;14.440;2022-12-01T00:03:40;39.72;35.66;42.82;;
37223;Laerm;28026;48.562;14.440;2022-12-01T00:06:16;39.38;34.69;45.51;;
37223;Laerm;28026;48.562;14.440;2022-12-01T00:08:50;39.92;33.97;54.58;;
37223;Laerm;28026;48.562;14.440;2022-12-01T00:11:40;40.35;35.36;49.30;;
37223;Laerm;28026;48.562;14.440;2022-12-01T00:14:11;39.75;34.31;43.90;;
37223;Laerm;28026;48.562;14.440;2022-12-01T00:16:42;41.52;35.94;53.87;;
37223;Laerm;28026;48.562;14.440;2022-12-01T00:19:14;39.67;33.90;47.84;;
37223;Laerm;28026;48.562;14.440;2022-12-01T00:21:45;39.68;35.04;43.77;;
37223;Laerm;28026;48.562;14.440;2022-12-01T00:24:16;39.21;35.04;45.27;;
37223;Laerm;28026;48.562;14.440;2022-12-01T00:26:47;38.70;33.90;41.53;;
37223;Laerm;28026;48.562;14.440;2022-12-01T00:29:17;38.26;32.93;43.63;;
37223;Laerm;28026;48.562;14.440;2022-12-01T00:31:48;39.38;33.90;61.62;;
37223;Laerm;28026;48.562;14.440;2022-12-01T00:34:24;38.33;33.90;47.40;;
37223;Laerm;28026;48.562;14.440;2022-12-01T00:36:55;38.13;33.90;43.49;;
37223;Laerm;28026;48.562;14.440;2022-12-01T00:39:26;37.83;33.44;43.19;;
37223;Laerm;28026;48.562;14.440;2022-12-01T00:41:57;37.59;32.35;43.39;;
37223;Laerm;28026;48.562;14.440;2022-12-01T00:44:28;37.31;32.35;42.93;;
37223;Laerm;28026;48.562;14.440;2022-12-01T00:46:59;37.55;32.35;52.84;;
37223;Laerm;28026;48.562;14.440;2022-12-01T00:49:30;38.32;33.44;52.09;;
37223;Laerm;28026;48.562;14.440;2022-12-01T00:52:01;38.90;34.31;44.23;;
37223;Laerm;28026;48.562;14.440;2022-12-01T00:54:32;40.06;34.31;67.66;;
37223;Laerm;28026;48.562;14.440;2022-12-01T00:57:03;38.51;34.31;41.82;;
37223;Laerm;28026;48.562;14.440;2022-12-01T00:59:34;38.27;32.93;43.72;;
37223;Laerm;28026;48.562;14.440;2022-12-01T01:02:06;38.22;34.31;51.70;;
37223;Laerm;28026;48.562;14.440;2022-12-01T01:04:38;38.52;32.35;41.22;;
37223;Laerm;28026;48.562;14.440;2022-12-01T01:07:08;38.13;33.90;40.89;;
37223;Laerm;28026;48.562;14.440;2022-12-01T01:09:39;44.15;35.94;57.40;;
37223;Laerm;28026;48.562;14.440;2022-12-01T01:12:10;38.31;33.44;54.45;;
37223;Laerm;28026;48.562;14.440;2022-12-01T01:14:41;38.26;32.35;49.87;;
37223;Laerm;28026;48.562;14.440;2022-12-01T01:17:12;37.79;32.35;40.43;;
37223;Laerm;28026;48.562;14.440;2022-12-01T01:19:43;39.78;33.09;49.43;;
37223;Laerm;28026;48.562;14.440;2022-12-01T01:22:14;42.12;35.04;48.48;;
37223;Laerm;28026;48.562;14.440;2022-12-01T01:24:45;38.93;33.90;59.75;;
37223;Laerm;28026;48.562;14.440;2022-12-01T01:27:16;38.35;33.90;42.53;;
37223;Laerm;28026;48.562;14.440;2022-12-01T01:29:47;38.21;32.93;44.23;;
37223;Laerm;28026;48.562;14.440;2022-12-01T01:32:18;41.43;33.90;49.35;;
37223;Laerm;28026;48.562;14.440;2022-12-01T01:34:49;37.69;32.35;43.63;;
37223;Laerm;28026;48.562;14.440;2022-12-01T01:37:20;37.67;33.44;41.96;;
37223;Laerm;28026;48.562;14.440;2022-12-01T01:39:50;37.32;31.68;42.35;;
37223;Laerm;28026;48.562;14.440;2022-12-01T01:42:21;37.62;32.35;42.88;;
37223;Laerm;28026;48.562;14.440;2022-12-01T01:44:57;37.84;32.35;50.66;;
37223;Laerm;28026;48.562;14.440;2022-12-01T01:47:39;38.24;32.35;49.00;;
37223;Laerm;28026;48.562;14.440;2022-12-01T01:50:15;38.58;33.90;43.94;;
37223;Laerm;28026;48.562;14.440;2022-12-01T01:53:05;38.69;33.90;51.54;;
37223;Laerm;28026;48.562;14.440;2022-12-01T01:55:38;38.10;32.35;42.71;;
37223;Laerm;28026;48.562;14.440;2022-12-01T01:58:10;37.73;32.35;46.18;;
37223;Laerm;28026;48.562;14.440;2022-12-01T02:00:43;37.62;32.35;40.98;;
37223;Laerm;28026;48.562;14.440;2022-12-01T02:03:18;41.96;32.93;51.59;;
37223;Laerm;28026;48.562;14.440;2022-12-01T02:05:50;37.94;32.93;42.35;;
37223;Laerm;28026;48.562;14.440;2022-12-01T02:08:21;37.53;32.35;49.97;;
37223;Laerm;28026;48.562;14.440;2022-12-01T02:25:27;40.27;33.09;54.94;;
37223;Laerm;28026;48.562;14.440;2022-12-01T02:31:43;38.97;33.44;53.04;;
37223;Laerm;28026;48.562;14.440;2022-12-01T02:37:48;38.98;33.90;57.33;;
37223;Laerm;28026;48.562;14.440;2022-12-01T02:40:49;38.51;33.90;44.83;;
37223;Laerm;28026;48.562;14.440;2022-12-01T02:46:44;38.81;33.44;49.67;;
37223;Laerm;28026;48.562;14.440;2022-12-01T02:49:27;38.31;32.35;43.94;;
37223;Laerm;28026;48.562;14.440;2022-12-01T02:52:03;38.30;33.44;41.82;;
37223;Laerm;28026;48.562;14.440;2022-12-01T02:54:37;38.90;32.00;51.35;;
37223;Laerm;28026;48.562;14.440;2022-12-01T02:57:14;39.83;34.69;44.51;;
37223;Laerm;28026;48.562;14.440;2022-12-01T02:59:53;39.93;33.90;46.91;;
37223;Laerm;28026;48.562;14.440;2022-12-01T03:02:47;39.14;33.44;44.31;;
37223;Laerm;28026;48.562;14.440;2022-12-01T03:05:54;38.50;33.90;42.65;;
37223;Laerm;28026;48.562;14.440;2022-12-01T03:08:46;41.98;33.90;49.06;;
37223;Laerm;28026;48.562;14.440;2022-12-01T03:11:38;39.35;35.04;55.40;;
37223;Laerm;28026;48.562;14.440;2022-12-01T03:21:25;39.38;35.36;42.29;;
37223;Laerm;28026;48.562;14.440;2022-12-01T03:24:14;40.88;35.94;51.76;;
37223;Laerm;28026;48.562;14.440;2022-12-01T03:26:55;41.67;36.69;49.63;;
37223;Laerm;28026;48.562;14.440;2022-12-01T03:29:38;39.80;34.31;44.19;;
37223;Laerm;28026;48.562;14.440;2022-12-01T03:32:26;39.91;35.94;51.33;;
37223;Laerm;28026;48.562;14.440;2022-12-01T03:35:31;40.08;35.04;47.61;;
37223;Laerm;28026;48.562;14.440;2022-12-01T03:38:28;39.90;35.94;44.15;;
37223;Laerm;28026;48.562;14.440;2022-12-01T03:41:15;40.13;34.69;45.33;;
37223;Laerm;28026;48.562;14.440;2022-12-01T03:44:02;42.11;35.94;53.73;;
37223;Laerm;28026;48.562;14.440;2022-12-01T03:46:57;40.36;36.20;44.54;;
37223;Laerm;28026;48.562;14.440;2022-12-01T03:49:30;40.71;36.91;44.97;;
37223;Laerm;28026;48.562;14.440;2022-12-01T03:52:30;40.69;36.20;45.45;;
37223;Laerm;28026;48.562;14.440;2022-12-01T03:55:28;41.58;36.20;46.18;;
37223;Laerm;28026;48.562;14.440;2022-12-01T03:58:17;40.23;36.45;43.77;;
37223;Laerm;28026;48.562;14.440;2022-12-01T04:00:49;42.08;36.91;53.76;;
37223;Laerm;28026;48.562;14.440;2022-12-01T04:03:25;42.01;37.32;48.10;;
37223;Laerm;28026;48.562;14.440;2022-12-01T04:05:56;42.97;36.91;55.56;;
37223;Laerm;28026;48.562;14.440;2022-12-01T04:08:27;41.46;37.12;51.47;;
37223;Laerm;28026;48.562;14.440;2022-12-01T04:11:00;42.54;37.88;47.00;;
37223;Laerm;28026;48.562;14.440;2022-12-01T04:13:51;41.69;37.70;52.00;;
37223;Laerm;28026;48.562;14.440;2022-12-01T04:16:22;43.06;38.21;59.45;;
37223;Laerm;28026;48.562;14.440;2022-12-01T04:18:53;43.47;36.20;55.31;;
37223;Laerm;28026;48.562;14.440;2022-12-01T04:21:23;42.78;36.91;52.02;;
37223;Laerm;28026;48.562;14.440;2022-12-01T04:23:54;40.93;36.69;44.65;;
37223;Laerm;28026;48.562;14.440;2022-12-01T04:26:36;41.19;37.32;43.81;;
37223;Laerm;28026;48.562;14.440;2022-12-01T04:29:10;40.74;37.12;46.97;;
37223;Laerm;28026;48.562;14.440;2022-12-01T04:31:41;42.10;37.88;46.45;;
37223;Laerm;28026;48.562;14.440;2022-12-01T04:34:12;40.79;35.36;44.49;;
37223;Laerm;28026;48.562;14.440;2022-12-01T04:36:43;41.24;37.52;44.27;;
37223;Laerm;28026;48.562;14.440;2022-12-01T04:39:14;41.68;37.32;44.69;;
37223;Laerm;28026;48.562;14.440;2022-12-01T04:41:45;42.66;37.70;54.74;;
37223;Laerm;28026;48.562;14.440;2022-12-01T04:44:16;41.53;37.12;45.14;;
37223;Laerm;28026;48.562;14.440;2022-12-01T04:46:47;42.07;37.88;45.83;;
37223;Laerm;28026;48.562;14.440;2022-12-01T04:49:20;41.42;37.52;45.83;;
37223;Laerm;28026;48.562;14.440;2022-12-01T04:51:51;46.66;36.69;61.23;;
37223;Laerm;28026;48.562;14.440;2022-12-01T04:54:23;41.86;37.32;47.46;;
37223;Laerm;28026;48.562;14.440;2022-12-01T04:56:54;41.96;37.70;50.48;;
37223;Laerm;28026;48.562;14.440;2022-12-01T04:59:25;42.81;37.12;51.95;;
37223;Laerm;28026;48.562;14.440;2022-12-01T05:01:56;42.96;37.32;56.45;;
37223;Laerm;28026;48.562;14.440;2022-12-01T05:04:27;43.07;38.37;53.74;;
37223;Laerm;28026;48.562;14.440;2022-12-01T05:06:58;42.54;37.88;46.15;;
37223;Laerm;28026;48.562;14.440;2022-12-01T05:09:29;43.38;37.52;57.07;;
37223;Laerm;28026;48.562;14.440;2022-12-01T05:12:00;43.63;38.81;54.97;;
37223;Laerm;28026;48.562;14.440;2022-12-01T05:14:31;41.80;37.32;49.02;;
37223;Laerm;28026;48.562;14.440;2022-12-01T05:17:02;41.64;37.88;52.45;;
37223;Laerm;28026;48.562;14.440;2022-12-01T05:19:32;41.43;36.69;44.19;;
37223;Laerm;28026;48.562;14.440;2022-12-01T05:22:22;42.11;38.37;45.07;;
37223;Laerm;28026;48.562;14.440;2022-12-01T05:24:53;43.20;38.99;54.16;;
37223;Laerm;28026;48.562;14.440;2022-12-01T05:27:24;41.36;36.20;48.05;;
37223;Laerm;28026;48.562;14.440;2022-12-01T05:29:54;41.45;38.52;44.49;;
37223;Laerm;28026;48.562;14.440;2022-12-01T05:32:25;42.03;38.21;52.41;;
37223;Laerm;28026;48.562;14.440;2022-12-01T05:34:56;41.80;38.05;49.50;;
37223;Laerm;28026;48.562;14.440;2022-12-01T05:37:27;41.65;37.70;44.83;;
37223;Laerm;28026;48.562;14.440;2022-12-01T05:40:03;41.41;38.21;46.28;;
37223;Laerm;28026;48.562;14.440;2022-12-01T05:42:34;41.53;37.88;46.13;;
37223;Laerm;28026;48.562;14.440;2022-12-01T05:45:06;42.60;39.08;45.33;;
37223;Laerm;28026;48.562;14.440;2022-12-01T05:47:37;41.93;38.37;46.48;;
37223;Laerm;28026;48.562;14.440;2022-12-01T05:50:09;41.80;38.37;51.79;;
37223;Laerm;28026;48.562;14.440;2022-12-01T05:52:40;42.94;38.81;56.71;;
37223;Laerm;28026;48.562;14.440;2022-12-01T05:55:11;41.52;38.37;48.78;;
37223;Laerm;28026;48.562;14.440;2022-12-01T05:57:42;40.99;37.52;46.95;;
37223;Laerm;28026;48.562;14.440;2022-12-01T06:00:14;42.98;38.05;66.65;;
37223;Laerm;28026;48.562;14.440;2022-12-01T06:02:45;40.77;37.32;44.80;;
37223;Laerm;28026;48.562;14.440;2022-12-01T06:05:16;42.24;38.67;55.01;;
37223;Laerm;28026;48.562;14.440;2022-12-01T06:07:48;47.66;37.88;80.01;;
37223;Laerm;28026;48.562;14.440;2022-12-01T06:10:19;41.12;37.88;44.04;;
37223;Laerm;28026;48.562;14.440;2022-12-01T06:12:50;44.74;39.92;53.70;;
37223;Laerm;28026;48.562;14.440;2022-12-01T06:15:21;44.47;39.78;57.18;;
37223;Laerm;28026;48.562;14.440;2022-12-01T06:17:52;42.09;37.52;57.10;;
37223;Laerm;28026;48.562;14.440;2022-12-01T06:20:23;41.28;38.37;45.88;;
37223;Laerm;28026;48.562;14.440;2022-12-01T06:22:54;42.45;38.37;62.77;;
37223;Laerm;28026;48.562;14.440;2022-12-01T06:25:25;42.87;39.08;49.78;;
37223;Laerm;28026;48.562;14.440;2022-12-01T06:27:57;41.85;38.67;44.19;;
37223;Laerm;28026;48.562;14.440;2022-12-01T06:30:28;44.30;39.34;56.13;;
37223;Laerm;28026;48.562;14.440;2022-12-01T06:32:59;42.39;38.05;47.93;;
37223;Laerm;28026;48.562;14.440;2022-12-01T06:35:30;41.68;38.52;43.90;;
37223;Laerm;28026;48.562;14.440;2022-12-01T06:38:02;43.67;38.52;55.56;;
37223;Laerm;28026;48.562;14.440;2022-12-01T06:40:33;41.89;38.47;51.41;;
37223;Laerm;28026;48.562;14.440;2022-12-01T06:43:04;43.04;40.13;52.61;;
37223;Laerm;28026;48.562;14.440;2022-12-01T06:45:36;41.80;37.88;48.58;;
37223;Laerm;28026;48.562;14.440;2022-12-01T06:48:07;42.93;39.21;53.39;;
37223;Laerm;28026;48.562;14.440;2022-12-01T06:50:38;41.77;38.67;55.79;;
37223;Laerm;28026;48.562;14.440;2022-12-01T06:53:09;42.26;38.37;50.91;;
37223;Laerm;28026;48.562;14.440;2022-12-01T06:55:41;41.64;38.37;48.18;;
37223;Laerm;28026;48.562;14.440;2022-12-01T06:58:12;41.71;38.21;45.20;;
37223;Laerm;28026;48.562;14.440;2022-12-01T07:00:43;41.87;38.52;49.34;;
37223;Laerm;28026;48.562;14.440;2022-12-01T07:03:14;42.22;38.37;50.20;;
37223;Laerm;28026;48.562;14.440;2022-12-01T07:05:56;41.90;39.21;44.31;;
37223;Laerm;28026;48.562;14.440;2022-12-01T07:08:30;44.68;38.21;60.80;;
37223;Laerm;28026;48.562;14.440;2022-12-01T07:11:09;42.03;38.52;52.44;;
37223;Laerm;28026;48.562;14.440;2022-12-01T07:13:43;41.25;38.05;44.43;;
37223;Laerm;28026;48.562;14.440;2022-12-01T07:16:19;41.50;38.81;44.27;;
37223;Laerm;28026;48.562;14.440;2022-12-01T07:18:50;41.55;37.32;48.60;;
37223;Laerm;28026;48.562;14.440;2022-12-01T07:21:22;42.05;38.37;49.78;;
37223;Laerm;28026;48.562;14.440;2022-12-01T07:23:54;41.39;38.05;44.03;;
37223;Laerm;28026;48.562;14.440;2022-12-01T07:26:25;41.37;37.52;46.59;;
37223;Laerm;28026;48.562;14.440;2022-12-01T07:28:56;41.50;38.05;43.72;;
37223;Laerm;28026;48.562;14.440;2022-12-01T07:31:27;43.17;36.20;48.31;;
37223;Laerm;28026;48.562;14.440;2022-12-01T07:33:58;43.66;40.54;58.89;;
37223;Laerm;28026;48.562;14.440;2022-12-01T07:36:28;42.48;38.95;50.32;;
37223;Laerm;28026;48.562;14.440;2022-12-01T07:39:05;41.96;38.67;45.45;;
37223;Laerm;28026;48.562;14.440;2022-12-01T07:41:37;42.44;39.34;52.48;;
37223;Laerm;28026;48.562;14.440;2022-12-01T07:44:10;43.10;38.52;55.71;;
37223;Laerm;28026;48.562;14.440;2022-12-01T07:46:41;43.21;38.21;59.38;;
37223;Laerm;28026;48.562;14.440;2022-12-01T07:49:12;43.09;39.46;49.14;;
37223;Laerm;28026;48.562;14.440;2022-12-01T07:51:45;43.21;39.08;57.00;;
37223;Laerm;28026;48.562;14.440;2022-12-01T07:54:16;42.99;39.23;52.91;;
37223;Laerm;28026;48.562;14.440;2022-12-01T07:56:49;42.65;38.37;54.43;;
37223;Laerm;28026;48.562;14.440;2022-12-01T07:59:20;42.18;38.05;53.04;;
37223;Laerm;28026;48.562;14.440;2022-12-01T08:01:51;42.33;39.58;52.41;;
37223;Laerm;28026;48.562;14.440;2022-12-01T08:04:22;42.96;38.67;56.51;;
37223;Laerm;28026;48.562;14.440;2022-12-01T08:06:53;42.91;39.34;52.43;;
37223;Laerm;28026;48.562;14.440;2022-12-01T08:09:24;42.45;39.21;50.83;;
37223;Laerm;28026;48.562;14.440;2022-12-01T08:11:55;42.64;39.08;47.32;;
37223;Laerm;28026;48.562;14.440;2022-12-01T08:14:26;43.08;39.21;63.48;;
37223;Laerm;28026;48.562;14.440;2022-12-01T08:16:57;43.73;39.92;51.90;;
37223;Laerm;28026;48.562;14.440;2022-12-01T08:19:27;41.65;38.21;57.96;;
37223;Laerm;28026;48.562;14.440;2022-12-01T08:21:58;42.28;36.69;45.66;;
37223;Laerm;28026;48.562;14.440;2022-12-01T08:24:29;41.59;38.05;46.08;;
37223;Laerm;28026;48.562;14.440;2022-12-01T08:27:00;41.68;38.52;50.23;;
37223;Laerm;28026;48.562;14.440;2022-12-01T08:29:31;41.80;38.05;45.91;;
37223;Laerm;28026;48.562;14.440;2022-12-01T08:32:02;41.48;38.37;43.68;;
37223;Laerm;28026;48.562;14.440;2022-12-01T08:34:36;42.25;38.21;50.12;;
37223;Laerm;28026;48.562;14.440;2022-12-01T08:37:08;41.93;38.81;51.82;;
37223;Laerm;28026;48.562;14.440;2022-12-01T08:39:39;41.90;38.67;46.59;;
37223;Laerm;28026;48.562;14.440;2022-12-01T08:42:10;42.28;38.05;51.84;;
37223;Laerm;28026;48.562;14.440;2022-12-01T08:44:41;41.48;37.70;47.40;;
37223;Laerm;28026;48.562;14.440;2022-12-01T08:47:11;42.65;39.08;50.68;;
37223;Laerm;28026;48.562;14.440;2022-12-01T08:49:42;47.87;40.23;61.81;;
37223;Laerm;28026;48.562;14.440;2022-12-01T08:52:13;44.24;40.13;52.34;;
37223;Laerm;28026;48.562;14.440;2022-12-01T08:54:44;46.88;38.95;62.81;;
37223;Laerm;28026;48.562;14.440;2022-12-01T08:57:16;41.95;38.52;45.42;;
37223;Laerm;28026;48.562;14.440;2022-12-01T08:59:47;42.13;39.08;45.80;;
37223;Laerm;28026;48.562;14.440;2022-12-01T09:02:19;44.59;40.98;53.14;;
37223;Laerm;28026;48.562;14.440;2022-12-01T09:04:54;43.33;40.33;52.51;;
37223;Laerm;28026;48.562;14.440;2022-12-01T09:07:25;45.11;38.87;57.42;;
37223;Laerm;28026;48.562;14.440;2022-12-01T09:09:56;42.18;38.67;44.66;;
37223;Laerm;28026;48.562;14.440;2022-12-01T09:12:28;42.10;38.18;45.11;;
37223;Laerm;28026;48.562;14.440;2022-12-01T09:14:59;44.85;41.30;56.80;;
37223;Laerm;28026;48.562;14.440;2022-12-01T09:17:30;42.36;39.46;45.89;;
37223;Laerm;28026;48.562;14.440;2022-12-01T09:20:01;43.36;39.58;57.19;;
37223;Laerm;28026;48.562;14.440;2022-12-01T09:22:32;42.06;39.21;46.40;;
37223;Laerm;28026;48.562;14.440;2022-12-01T09:25:05;42.38;39.34;50.82;;
37223;Laerm;28026;48.562;14.440;2022-12-01T09:27:37;41.47;38.05;43.49;;
37223;Laerm;28026;48.562;14.440;2022-12-01T09:30:09;47.00;38.67;61.81;;
37223;Laerm;28026;48.562;14.440;2022-12-01T09:32:40;42.50;39.81;47.06;;
37223;Laerm;28026;48.562;14.440;2022-12-01T09:35:11;41.99;39.21;48.08;;
37223;Laerm;28026;48.562;14.440;2022-12-01T09:37:42;44.10;39.58;56.07;;
37223;Laerm;28026;48.562;14.440;2022-12-01T09:40:14;46.64;39.70;59.41;;
37223;Laerm;28026;48.562;14.440;2022-12-01T09:42:46;42.17;39.46;44.39;;
37223;Laerm;28026;48.562;14.440;2022-12-01T09:45:43;42.74;39.58;46.66;;
37223;Laerm;28026;48.562;14.440;2022-12-01T09:48:32;42.42;38.05;53.27;;
37223;Laerm;28026;48.562;14.440;2022-12-01T09:51:20;42.57;39.46;54.64;;
37223;Laerm;28026;48.562;14.440;2022-12-01T09:54:00;42.24;38.95;44.27;;
37223;Laerm;28026;48.562;14.440;2022-12-01T09:56:47;46.01;40.71;59.35;;
37223;Laerm;28026;48.562;14.440;2022-12-01T09:59:26;46.68;40.03;62.48;;
37223;Laerm;28026;48.562;14.440;2022-12-01T10:02:23;45.83;40.23;58.23;;
37223;Laerm;28026;48.562;14.440;2022-12-01T10:05:02;47.50;39.46;59.03;;
37223;Laerm;28026;48.562;14.440;2022-12-01T10:07:44;49.61;39.46;59.40;;
37223;Laerm;28026;48.562;14.440;2022-12-01T10:10:43;48.40;40.71;58.72;;
37223;Laerm;28026;48.562;14.440;2022-12-01T10:13:26;46.58;40.98;57.90;;
37223;Laerm;28026;48.562;14.440;2022-12-01T10:16:17;46.11;39.70;57.66;;
37223;Laerm;28026;48.562;14.440;2022-12-01T10:19:44;44.96;39.92;58.19;;
37223;Laerm;28026;48.562;14.440;2022-12-01T10:28:44;45.25;40.43;57.22;;
37223;Laerm;28026;48.562;14.440;2022-12-01T10:34:25;44.16;39.46;55.59;;
37223;Laerm;28026;48.562;14.440;2022-12-01T10:36:58;44.20;39.34;58.27;;
37223;Laerm;28026;48.562;14.440;2022-12-01T10:39:38;46.58;40.03;61.92;;
37223;Laerm;28026;48.562;14.440;2022-12-01T10:45:23;47.85;40.62;59.82;;
37223;Laerm;28026;48.562;14.440;2022-12-01T10:48:19;48.89;40.98;59.59;;
37223;Laerm;28026;48.562;14.440;2022-12-01T10:50:56;47.09;40.33;58.57;;
37223;Laerm;28026;48.562;14.440;2022-12-01T10:53:43;46.46;39.21;59.00;;
37223;Laerm;28026;48.562;14.440;2022-12-01T10:56:20;47.56;40.03;60.27;;
37223;Laerm;28026;48.562;14.440;2022-12-01T10:59:03;44.86;39.92;57.54;;
37223;Laerm;28026;48.562;14.440;2022-12-01T11:01:47;47.89;40.18;62.93;;
37223;Laerm;28026;48.562;14.440;2022-12-01T11:04:34;44.09;39.81;54.08;;
37223;Laerm;28026;48.562;14.440;2022-12-01T11:07:17;44.83;40.23;56.94;;
37223;Laerm;28026;48.562;14.440;2022-12-01T11:10:18;45.61;39.58;62.20;;
37223;Laerm;28026;48.562;14.440;2022-12-01T11:13:22;44.22;38.95;55.72;;
37223;Laerm;28026;48.562;14.440;2022-12-01T11:16:01;45.20;40.03;55.23;;
37223;Laerm;28026;48.562;14.440;2022-12-01T11:18:37;43.36;38.21;55.88;;
37223;Laerm;28026;48.562;14.440;2022-12-01T11:21:24;44.68;40.23;56.69;;
37223;Laerm;28026;48.562;14.440;2022-12-01T11:23:55;42.83;39.70;55.22;;
37223;Laerm;28026;48.562;14.440;2022-12-01T11:26:33;43.21;38.52;55.82;;
37223;Laerm;28026;48.562;14.440;2022-12-01T11:29:32;42.39;38.37;55.44;;
37223;Laerm;28026;48.562;14.440;2022-12-01T11:32:28;42.04;38.67;54.29;;
37223;Laerm;28026;48.562;14.440;2022-12-01T11:35:22;45.23;39.08;56.96;;
37223;Laerm;28026;48.562;14.440;2022-12-01T11:37:59;41.94;38.21;51.67;;
37223;Laerm;28026;48.562;14.440;2022-12-01T11:40:56;42.10;38.52;51.33;;
37223;Laerm;28026;48.562;14.440;2022-12-01T11:43:36;44.41;38.05;56.38;;
37223;Laerm;28026;48.562;14.440;2022-12-01T11:46:09;43.49;38.87;54.59;;
37223;Laerm;28026;48.562;14.440;2022-12-01T11:48:40;42.05;38.67;52.06;;
37223;Laerm;28026;48.562;14.440;2022-12-01T11:53:47;42.36;38.37;52.81;;
37223;Laerm;28026;48.562;14.440;2022-12-01T11:56:29;43.05;38.37;53.74;;
37223;Laerm;28026;48.562;14.440;2022-12-01T11:59:23;42.69;38.67;51.33;;
37223;Laerm;28026;48.562;14.440;2022-12-01T12:02:29;42.68;38.81;60.19;;
37223;Laerm;28026;48.562;14.440;2022-12-01T12:14:37;43.26;38.21;58.48;;
37223;Laerm;28026;48.562;14.440;2022-12-01T12:17:53;42.49;38.37;53.41;;
37223;Laerm;28026;48.562;14.440;2022-12-01T12:30:28;43.05;38.52;53.42;;
37223;Laerm;28026;48.562;14.440;2022-12-01T12:43:20;44.17;38.52;56.15;;
37223;Laerm;28026;48.562;14.440;2022-12-01T12:46:12;44.81;38.81;56.38;;
37223;Laerm;28026;48.562;14.440;2022-12-01T12:52:25;42.51;38.52;59.36;;
37223;Laerm;28026;48.562;14.440;2022-12-01T12:55:11;42.14;38.05;54.48;;
37223;Laerm;28026;48.562;14.440;2022-12-01T12:58:02;42.89;38.37;55.15;;
37223;Laerm;28026;48.562;14.440;2022-12-01T13:00:47;46.17;40.62;59.65;;
37223;Laerm;28026;48.562;14.440;2022-12-01T13:03:45;44.98;38.52;58.63;;
37223;Laerm;28026;48.562;14.440;2022-12-01T13:06:35;42.50;38.37;55.97;;
37223;Laerm;28026;48.562;14.440;2022-12-01T13:09:23;42.67;38.32;59.21;;
37223;Laerm;28026;48.562;14.440;2022-12-01T13:12:06;44.02;39.21;61.80;;
37223;Laerm;28026;48.562;14.440;2022-12-01T13:14:52;42.74;38.95;59.60;;
37223;Laerm;28026;48.562;14.440;2022-12-01T13:18:00;42.98;38.05;61.44;;
37223;Laerm;28026;48.562;14.440;2022-12-01T13:20:33;44.76;38.21;63.76;;
37223;Laerm;28026;48.562;14.440;2022-12-01T13:23:07;42.78;38.52;61.82;;
37223;Laerm;28026;48.562;14.440;2022-12-01T13:25:46;42.22;37.17;64.73;;
37223;Laerm;28026;48.562;14.440;2022-12-01T13:28:59;44.67;38.95;68.96;;
37223;Laerm;28026;48.562;14.440;2022-12-01T13:31:47;44.93;39.08;65.68;;
37223;Laerm;28026;48.562;14.440;2022-12-01T13:34:40;46.43;40.13;70.55;;
37223;Laerm;28026;48.562;14.440;2022-12-01T13:37:29;42.85;38.02;51.26;;
37223;Laerm;28026;48.562;14.440;2022-12-01T13:40:26;43.62;39.58;52.89;;
37223;Laerm;28026;48.562;14.440;2022-12-01T13:43:04;42.01;39.34;49.29;;
37223;Laerm;28026;48.562;14.440;2022-12-01T13:45:38;41.57;38.21;44.62;;
37223;Laerm;28026;48.562;14.440;2022-12-01T13:48:49;42.25;39.08;45.94;;
37223;Laerm;28026;48.562;14.440;2022-12-01T13:51:23;41.97;39.08;47.50;;
37223;Laerm;28026;48.562;14.440;2022-12-01T13:54:15;46.17;38.67;58.28;;
37223;Laerm;28026;48.562;14.440;2022-12-01T13:57:09;42.94;39.21;54.01;;
37223;Laerm;28026;48.562;14.440;2022-12-01T14:05:55;42.00;38.52;48.07;;
37223;Laerm;28026;48.562;14.440;2022-12-01T14:08:48;42.32;38.21;64.07;;
37223;Laerm;28026;48.562;14.440;2022-12-01T14:11:26;43.69;38.81;57.14;;
37223;Laerm;28026;48.562;14.440;2022-12-01T14:14:11;41.81;39.08;52.92;;
37223;Laerm;28026;48.562;14.440;2022-12-01T14:16:57;46.35;38.81;63.09;;
37223;Laerm;28026;48.562;14.440;2022-12-01T14:19:33;43.00;38.67;57.27;;
37223;Laerm;28026;48.562;14.440;2022-12-01T14:22:42;43.51;39.34;55.47;;
37223;Laerm;28026;48.562;14.440;2022-12-01T14:28:00;42.90;39.21;54.64;;
37223;Laerm;28026;48.562;14.440;2022-12-01T14:33:42;45.16;39.21;63.20;;
37223;Laerm;28026;48.562;14.440;2022-12-01T14:41:58;45.17;39.21;65.35;;
37223;Laerm;28026;48.562;14.440;2022-12-01T14:44:53;42.48;38.52;58.21;;
37223;Laerm;28026;48.562;14.440;2022-12-01T14:47:40;44.77;38.21;65.52;;
37223;Laerm;28026;48.562;14.440;2022-12-01T14:50:21;45.27;36.91;59.62;;
37223;Laerm;28026;48.562;14.440;2022-12-01T14:53:32;46.39;38.81;70.42;;
37223;Laerm;28026;48.562;14.440;2022-12-01T14:56:18;42.31;39.08;54.54;;
37223;Laerm;28026;48.562;14.440;2022-12-01T14:59:18;44.38;39.46;56.97;;
37223;Laerm;28026;48.562;14.440;2022-12-01T15:01:56;44.41;39.70;58.01;;
37223;Laerm;28026;48.562;14.440;2022-12-01T15:04:31;42.93;38.95;57.91;;
37223;Laerm;28026;48.562;14.440;2022-12-01T15:07:02;44.53;39.21;58.15;;
37223;Laerm;28026;48.562;14.440;2022-12-01T15:09:33;41.65;38.05;49.66;;
37223;Laerm;28026;48.562;14.440;2022-12-01T15:12:25;41.43;38.05;54.64;;
37223;Laerm;28026;48.562;14.440;2022-12-01T15:14:57;42.09;38.21;50.57;;
37223;Laerm;28026;48.562;14.440;2022-12-01T15:17:34;45.10;40.03;61.33;;
37223;Laerm;28026;48.562;14.440;2022-12-01T15:20:37;48.58;41.82;64.02;;
37223;Laerm;28026;48.562;14.440;2022-12-01T15:23:15;44.89;39.08;62.16;;
37223;Laerm;28026;48.562;14.440;2022-12-01T15:25:46;46.65;40.13;58.73;;
37223;Laerm;28026;48.562;14.440;2022-12-01T15:28:31;48.44;38.37;72.96;;
37223;Laerm;28026;48.562;14.440;2022-12-01T15:31:11;45.78;39.21;60.28;;
37223;Laerm;28026;48.562;14.440;2022-12-01T15:33:51;48.09;38.37;66.58;;
37223;Laerm;28026;48.562;14.440;2022-12-01T15:36:23;45.93;39.46;58.94;;
37223;Laerm;28026;48.562;14.440;2022-12-01T15:38:54;42.25;38.21;52.75;;
37223;Laerm;28026;48.562;14.440;2022-12-01T15:41:26;42.04;38.81;55.04;;
37223;Laerm;28026;48.562;14.440;2022-12-01T15:43:58;41.63;38.21;51.77;;
37223;Laerm;28026;48.562;14.440;2022-12-01T15:46:35;44.77;38.05;57.50;;
37223;Laerm;28026;48.562;14.440;2022-12-01T15:49:32;46.16;37.32;60.04;;
37223;Laerm;28026;48.562;14.440;2022-12-01T15:52:10;42.05;38.05;50.00;;
37223;Laerm;28026;48.562;14.440;2022-12-01T15:54:47;41.84;38.21;49.96;;
37223;Laerm;28026;48.562;14.440;2022-12-01T15:57:20;41.78;38.52;52.42;;
37223;Laerm;28026;48.562;14.440;2022-12-01T15:59:56;47.00;40.43;61.58;;
37223;Laerm;28026;48.562;14.440;2022-12-01T16:02:32;48.03;39.70;60.35;;
37223;Laerm;28026;48.562;14.440;2022-12-01T16:05:17;43.23;37.32;66.58;;
37223;Laerm;28026;48.562;14.440;2022-12-01T16:07:49;42.02;37.12;63.71;;